sensor_id;sensor_type;location;lat;lon;timestamp;P1;durP1;ratioP1;P2;durP2;ratioP2
68653;SDS011;55636;51.108;13.622;2023-03-23T00:00:44;3.53;;;2.20;;
68653;SDS011;55636;51.108;13.622;2023-03-23T00:01:48;4.95;;;2.10;;
68653;SDS011;55636;51.108;13.622;2023-03-23T00:02:54;2.33;;;2.05;;
68653;SDS011;55636;51.108;13.622;2023-03-23T00:03:57;2.53;;;2.03;;
68653;SDS011;55636;51.108;13.622;2023-03-23T00:05:01;4.65;;;1.80;;
68653;SDS011;55636;51.108;13.622;2023-03-23T00:06:05;2.10;;;1.75;;
68653;SDS011;55636;51.108;13.622;2023-03-23T00:07:08;2.70;;;1.95;;
68653;SDS011;55636;51.108;13.622;2023-03-23T00:08:12;2.03;;;1.83;;
68653;SDS011;55636;51.108;13.622;2023-03-23T00:09:15;2.65;;;1.77;;
68653;SDS011;55636;51.108;13.622;2023-03-23T00:10:18;2.72;;;1.80;;
68653;SDS011;55636;51.108;13.622;2023-03-23T00:11:21;1.80;;;1.70;;
68653;SDS011;55636;51.108;13.622;2023-03-23T00:12:29;2.13;;;1.60;;
68653;SDS011;55636;51.108;13.622;2023-03-23T00:13:36;2.08;;;1.67;;
68653;SDS011;55636;51.108;13.622;2023-03-23T00:14:41;1.75;;;1.52;;
68653;SDS011;55636;51.108;13.622;2023-03-23T00:15:43;2.35;;;1.70;;
68653;SDS011;55636;51.108;13.622;2023-03-23T00:16:46;1.67;;;1.50;;
68653;SDS011;55636;51.108;13.622;2023-03-23T00:17:49;2.13;;;1.50;;
68653;SDS011;55636;51.108;13.622;2023-03-23T00:18:51;2.95;;;1.48;;
68653;SDS011;55636;51.108;13.622;2023-03-23T00:19:55;1.98;;;1.60;;
68653;SDS011;55636;51.108;13.622;2023-03-23T00:20:58;1.40;;;1.25;;
68653;SDS011;55636;51.108;13.622;2023-03-23T00:22:00;1.50;;;1.40;;
68653;SDS011;55636;51.108;13.622;2023-03-23T00:23:03;1.75;;;1.38;;
68653;SDS011;55636;51.108;13.622;2023-03-23T00:24:07;1.42;;;1.10;;
68653;SDS011;55636;51.108;13.622;2023-03-23T00:25:15;1.20;;;1.10;;
68653;SDS011;55636;51.108;13.622;2023-03-23T00:26:19;1.20;;;1.10;;
68653;SDS011;55636;51.108;13.622;2023-03-23T00:27:22;1.30;;;1.20;;
68653;SDS011;55636;51.108;13.622;2023-03-23T00:28:25;1.30;;;1.20;;
68653;SDS011;55636;51.108;13.622;2023-03-23T00:29:29;1.38;;;1.13;;
68653;SDS011;55636;51.108;13.622;2023-03-23T00:30:32;2.47;;;1.33;;
68653;SDS011;55636;51.108;13.622;2023-03-23T00:31:37;1.42;;;1.30;;
68653;SDS011;55636;51.108;13.622;2023-03-23T00:32:39;2.53;;;1.83;;
68653;SDS011;55636;51.108;13.622;2023-03-23T00:33:43;1.65;;;1.10;;
68653;SDS011;55636;51.108;13.622;2023-03-23T00:34:46;1.27;;;1.17;;
68653;SDS011;55636;51.108;13.622;2023-03-23T00:35:51;1.30;;;1.10;;
68653;SDS011;55636;51.108;13.622;2023-03-23T00:36:54;2.25;;;1.27;;
68653;SDS011;55636;51.108;13.622;2023-03-23T00:37:59;1.80;;;1.00;;
68653;SDS011;55636;51.108;13.622;2023-03-23T00:39:02;1.23;;;1.05;;
68653;SDS011;55636;51.108;13.622;2023-03-23T00:40:06;1.08;;;1.08;;
68653;SDS011;55636;51.108;13.622;2023-03-23T00:41:11;1.35;;;1.17;;
68653;SDS011;55636;51.108;13.622;2023-03-23T00:42:15;1.25;;;1.10;;
68653;SDS011;55636;51.108;13.622;2023-03-23T00:43:19;1.23;;;1.13;;
68653;SDS011;55636;51.108;13.622;2023-03-23T00:44:21;1.73;;;1.08;;
68653;SDS011;55636;51.108;13.622;2023-03-23T00:45:25;1.98;;;1.10;;
68653;SDS011;55636;51.108;13.622;2023-03-23T00:46:29;0.95;;;0.90;;
68653;SDS011;55636;51.108;13.622;2023-03-23T00:47:32;1.80;;;1.17;;
68653;SDS011;55636;51.108;13.622;2023-03-23T00:48:38;1.17;;;1.00;;
68653;SDS011;55636;51.108;13.622;2023-03-23T00:49:46;1.13;;;1.02;;
68653;SDS011;55636;51.108;13.622;2023-03-23T00:50:50;1.10;;;0.90;;
68653;SDS011;55636;51.108;13.622;2023-03-23T00:51:55;1.00;;;1.00;;
68653;SDS011;55636;51.108;13.622;2023-03-23T00:53:00;0.98;;;0.98;;
68653;SDS011;55636;51.108;13.622;2023-03-23T00:54:03;1.17;;;1.05;;
68653;SDS011;55636;51.108;13.622;2023-03-23T00:55:06;0.90;;;0.90;;
68653;SDS011;55636;51.108;13.622;2023-03-23T00:56:09;1.67;;;1.10;;
68653;SDS011;55636;51.108;13.622;2023-03-23T00:57:12;1.17;;;0.90;;
68653;SDS011;55636;51.108;13.622;2023-03-23T00:58:15;1.80;;;1.05;;
68653;SDS011;55636;51.108;13.622;2023-03-23T00:59:18;1.20;;;1.10;;
68653;SDS011;55636;51.108;13.622;2023-03-23T01:00:22;1.40;;;1.23;;
68653;SDS011;55636;51.108;13.622;2023-03-23T01:01:25;1.00;;;1.00;;
68653;SDS011;55636;51.108;13.622;2023-03-23T01:02:27;1.30;;;1.10;;
68653;SDS011;55636;51.108;13.622;2023-03-23T01:03:30;1.95;;;1.05;;
68653;SDS011;55636;51.108;13.622;2023-03-23T01:04:33;1.15;;;1.05;;
68653;SDS011;55636;51.108;13.622;2023-03-23T01:05:40;1.35;;;1.20;;
68653;SDS011;55636;51.108;13.622;2023-03-23T01:06:43;1.30;;;1.10;;
68653;SDS011;55636;51.108;13.622;2023-03-23T01:07:46;2.28;;;1.05;;
68653;SDS011;55636;51.108;13.622;2023-03-23T01:08:50;1.77;;;1.20;;
68653;SDS011;55636;51.108;13.622;2023-03-23T01:09:53;1.40;;;1.30;;
68653;SDS011;55636;51.108;13.622;2023-03-23T01:11:01;2.17;;;1.33;;
68653;SDS011;55636;51.108;13.622;2023-03-23T01:12:07;1.55;;;1.30;;
68653;SDS011;55636;51.108;13.622;2023-03-23T01:13:10;2.20;;;1.45;;
68653;SDS011;55636;51.108;13.622;2023-03-23T01:14:13;1.42;;;1.33;;
68653;SDS011;55636;51.108;13.622;2023-03-23T01:15:18;1.95;;;1.60;;
68653;SDS011;55636;51.108;13.622;2023-03-23T01:16:21;1.60;;;1.40;;
68653;SDS011;55636;51.108;13.622;2023-03-23T01:17:23;1.55;;;1.45;;
68653;SDS011;55636;51.108;13.622;2023-03-23T01:18:26;1.40;;;1.30;;
68653;SDS011;55636;51.108;13.622;2023-03-23T01:19:34;2.08;;;1.50;;
68653;SDS011;55636;51.108;13.622;2023-03-23T01:20:37;2.15;;;1.80;;
68653;SDS011;55636;51.108;13.622;2023-03-23T01:21:39;1.63;;;1.42;;
68653;SDS011;55636;51.108;13.622;2023-03-23T01:22:42;1.70;;;1.60;;
68653;SDS011;55636;51.108;13.622;2023-03-23T01:23:45;1.67;;;1.58;;
68653;SDS011;55636;51.108;13.622;2023-03-23T01:24:48;2.30;;;1.73;;
68653;SDS011;55636;51.108;13.622;2023-03-23T01:25:51;2.63;;;1.50;;
68653;SDS011;55636;51.108;13.622;2023-03-23T01:26:56;2.58;;;1.70;;
68653;SDS011;55636;51.108;13.622;2023-03-23T01:28:03;1.60;;;1.42;;
68653;SDS011;55636;51.108;13.622;2023-03-23T01:29:06;2.05;;;1.85;;
68653;SDS011;55636;51.108;13.622;2023-03-23T01:30:11;1.70;;;1.50;;
68653;SDS011;55636;51.108;13.622;2023-03-23T01:31:17;2.05;;;1.80;;
68653;SDS011;55636;51.108;13.622;2023-03-23T01:32:21;1.92;;;1.60;;
68653;SDS011;55636;51.108;13.622;2023-03-23T01:33:27;1.70;;;1.50;;
68653;SDS011;55636;51.108;13.622;2023-03-23T01:34:31;1.88;;;1.67;;
68653;SDS011;55636;51.108;13.622;2023-03-23T01:35:36;1.75;;;1.50;;
68653;SDS011;55636;51.108;13.622;2023-03-23T01:36:40;2.13;;;1.70;;
68653;SDS011;55636;51.108;13.622;2023-03-23T01:37:44;2.97;;;1.73;;
68653;SDS011;55636;51.108;13.622;2023-03-23T01:38:49;2.20;;;2.00;;
68653;SDS011;55636;51.108;13.622;2023-03-23T01:39:55;1.95;;;1.60;;
68653;SDS011;55636;51.108;13.622;2023-03-23T01:40:58;1.77;;;1.67;;
68653;SDS011;55636;51.108;13.622;2023-03-23T01:42:01;1.90;;;1.70;;
68653;SDS011;55636;51.108;13.622;2023-03-23T01:43:07;1.50;;;1.40;;
68653;SDS011;55636;51.108;13.622;2023-03-23T01:45:32;1.80;;;1.58;;
68653;SDS011;55636;51.108;13.622;2023-03-23T01:46:39;1.70;;;1.50;;
68653;SDS011;55636;51.108;13.622;2023-03-23T01:47:43;1.60;;;1.50;;
68653;SDS011;55636;51.108;13.622;2023-03-23T01:48:45;2.80;;;1.60;;
68653;SDS011;55636;51.108;13.622;2023-03-23T01:49:48;1.65;;;1.55;;
68653;SDS011;55636;51.108;13.622;2023-03-23T01:50:57;2.38;;;1.63;;
68653;SDS011;55636;51.108;13.622;2023-03-23T01:52:09;2.10;;;1.60;;
68653;SDS011;55636;51.108;13.622;2023-03-23T01:53:21;2.67;;;1.67;;
68653;SDS011;55636;51.108;13.622;2023-03-23T01:54:27;2.75;;;1.60;;
68653;SDS011;55636;51.108;13.622;2023-03-23T01:55:43;2.13;;;1.48;;
68653;SDS011;55636;51.108;13.622;2023-03-23T01:56:55;1.70;;;1.48;;
68653;SDS011;55636;51.108;13.622;2023-03-23T01:58:02;1.63;;;1.52;;
68653;SDS011;55636;51.108;13.622;2023-03-23T01:59:04;1.60;;;1.50;;
68653;SDS011;55636;51.108;13.622;2023-03-23T02:00:07;1.60;;;1.50;;
68653;SDS011;55636;51.108;13.622;2023-03-23T02:01:20;1.70;;;1.60;;
68653;SDS011;55636;51.108;13.622;2023-03-23T02:02:30;1.73;;;1.50;;
68653;SDS011;55636;51.108;13.622;2023-03-23T02:03:37;2.05;;;1.60;;
68653;SDS011;55636;51.108;13.622;2023-03-23T02:04:43;2.38;;;1.70;;
68653;SDS011;55636;51.108;13.622;2023-03-23T02:05:46;1.75;;;1.60;;
68653;SDS011;55636;51.108;13.622;2023-03-23T02:06:59;1.67;;;1.58;;
68653;SDS011;55636;51.108;13.622;2023-03-23T02:08:06;2.08;;;1.75;;
68653;SDS011;55636;51.108;13.622;2023-03-23T02:09:14;2.65;;;1.80;;
68653;SDS011;55636;51.108;13.622;2023-03-23T02:10:26;2.35;;;1.60;;
68653;SDS011;55636;51.108;13.622;2023-03-23T02:11:29;3.17;;;1.50;;
68653;SDS011;55636;51.108;13.622;2023-03-23T02:12:32;2.78;;;1.67;;
68653;SDS011;55636;51.108;13.622;2023-03-23T02:13:36;1.90;;;1.70;;
68653;SDS011;55636;51.108;13.622;2023-03-23T02:14:39;1.70;;;1.60;;
68653;SDS011;55636;51.108;13.622;2023-03-23T02:15:46;1.80;;;1.38;;
68653;SDS011;55636;51.108;13.622;2023-03-23T02:19:28;1.70;;;1.50;;
68653;SDS011;55636;51.108;13.622;2023-03-23T02:22:22;2.58;;;1.60;;
68653;SDS011;55636;51.108;13.622;2023-03-23T02:23:51;2.28;;;1.60;;
68653;SDS011;55636;51.108;13.622;2023-03-23T02:27:47;1.67;;;1.50;;
68653;SDS011;55636;51.108;13.622;2023-03-23T02:34:04;2.25;;;1.55;;
68653;SDS011;55636;51.108;13.622;2023-03-23T02:35:34;2.10;;;1.60;;
68653;SDS011;55636;51.108;13.622;2023-03-23T02:36:42;1.90;;;1.70;;
68653;SDS011;55636;51.108;13.622;2023-03-23T02:37:55;2.53;;;1.52;;
68653;SDS011;55636;51.108;13.622;2023-03-23T02:39:08;1.70;;;1.40;;
68653;SDS011;55636;51.108;13.622;2023-03-23T02:40:17;3.08;;;1.70;;
68653;SDS011;55636;51.108;13.622;2023-03-23T02:41:24;2.50;;;1.50;;
68653;SDS011;55636;51.108;13.622;2023-03-23T02:42:32;1.63;;;1.40;;
68653;SDS011;55636;51.108;13.622;2023-03-23T02:43:38;2.33;;;1.60;;
68653;SDS011;55636;51.108;13.622;2023-03-23T02:44:46;1.80;;;1.55;;
68653;SDS011;55636;51.108;13.622;2023-03-23T02:45:50;1.52;;;1.40;;
68653;SDS011;55636;51.108;13.622;2023-03-23T02:46:56;2.15;;;1.65;;
68653;SDS011;55636;51.108;13.622;2023-03-23T02:48:01;1.77;;;1.63;;
68653;SDS011;55636;51.108;13.622;2023-03-23T02:49:09;1.90;;;1.45;;
68653;SDS011;55636;51.108;13.622;2023-03-23T02:50:17;2.92;;;1.40;;
68653;SDS011;55636;51.108;13.622;2023-03-23T02:51:22;1.52;;;1.40;;
68653;SDS011;55636;51.108;13.622;2023-03-23T02:52:28;1.85;;;1.45;;
68653;SDS011;55636;51.108;13.622;2023-03-23T02:53:33;2.03;;;1.60;;
68653;SDS011;55636;51.108;13.622;2023-03-23T02:54:38;1.75;;;1.50;;
68653;SDS011;55636;51.108;13.622;2023-03-23T02:55:44;1.40;;;1.30;;
68653;SDS011;55636;51.108;13.622;2023-03-23T02:56:51;1.95;;;1.42;;
68653;SDS011;55636;51.108;13.622;2023-03-23T02:58:01;1.92;;;1.50;;
68653;SDS011;55636;51.108;13.622;2023-03-23T02:59:04;1.75;;;1.60;;
68653;SDS011;55636;51.108;13.622;2023-03-23T03:00:07;2.10;;;1.52;;
68653;SDS011;55636;51.108;13.622;2023-03-23T03:01:16;2.88;;;1.30;;
68653;SDS011;55636;51.108;13.622;2023-03-23T03:02:40;1.58;;;1.42;;
68653;SDS011;55636;51.108;13.622;2023-03-23T03:03:49;2.13;;;1.55;;
68653;SDS011;55636;51.108;13.622;2023-03-23T03:05:02;2.22;;;1.33;;
68653;SDS011;55636;51.108;13.622;2023-03-23T03:06:21;1.75;;;1.40;;
68653;SDS011;55636;51.108;13.622;2023-03-23T03:07:54;2.58;;;1.30;;
68653;SDS011;55636;51.108;13.622;2023-03-23T03:09:31;1.60;;;1.50;;
68653;SDS011;55636;51.108;13.622;2023-03-23T03:12:02;2.15;;;1.42;;
68653;SDS011;55636;51.108;13.622;2023-03-23T03:14:38;2.63;;;1.52;;
68653;SDS011;55636;51.108;13.622;2023-03-23T03:17:35;1.75;;;1.25;;
68653;SDS011;55636;51.108;13.622;2023-03-23T03:18:47;1.33;;;1.17;;
68653;SDS011;55636;51.108;13.622;2023-03-23T03:19:57;1.95;;;1.40;;
68653;SDS011;55636;51.108;13.622;2023-03-23T03:21:13;2.03;;;1.60;;
68653;SDS011;55636;51.108;13.622;2023-03-23T03:22:19;1.85;;;1.40;;
68653;SDS011;55636;51.108;13.622;2023-03-23T03:23:24;1.48;;;1.25;;
68653;SDS011;55636;51.108;13.622;2023-03-23T03:24:32;1.85;;;1.48;;
68653;SDS011;55636;51.108;13.622;2023-03-23T03:25:38;1.67;;;1.40;;
68653;SDS011;55636;51.108;13.622;2023-03-23T03:26:56;1.67;;;1.27;;
68653;SDS011;55636;51.108;13.622;2023-03-23T03:28:09;4.45;;;1.30;;
68653;SDS011;55636;51.108;13.622;2023-03-23T03:29:20;3.85;;;1.20;;
68653;SDS011;55636;51.108;13.622;2023-03-23T03:30:33;1.70;;;1.40;;
68653;SDS011;55636;51.108;13.622;2023-03-23T03:31:39;1.40;;;1.30;;
68653;SDS011;55636;51.108;13.622;2023-03-23T03:32:48;1.38;;;1.27;;
68653;SDS011;55636;51.108;13.622;2023-03-23T03:33:57;1.30;;;1.08;;
68653;SDS011;55636;51.108;13.622;2023-03-23T03:35:01;1.30;;;1.20;;
68653;SDS011;55636;51.108;13.622;2023-03-23T03:36:05;1.67;;;1.48;;
68653;SDS011;55636;51.108;13.622;2023-03-23T03:37:13;1.27;;;1.17;;
68653;SDS011;55636;51.108;13.622;2023-03-23T03:38:17;2.05;;;1.25;;
68653;SDS011;55636;51.108;13.622;2023-03-23T03:39:20;1.58;;;1.48;;
68653;SDS011;55636;51.108;13.622;2023-03-23T03:40:23;1.40;;;1.30;;
68653;SDS011;55636;51.108;13.622;2023-03-23T03:41:26;1.33;;;1.20;;
68653;SDS011;55636;51.108;13.622;2023-03-23T03:42:29;2.92;;;1.10;;
68653;SDS011;55636;51.108;13.622;2023-03-23T03:43:33;1.55;;;1.35;;
68653;SDS011;55636;51.108;13.622;2023-03-23T03:44:38;1.45;;;1.35;;
68653;SDS011;55636;51.108;13.622;2023-03-23T03:45:40;1.80;;;1.33;;
68653;SDS011;55636;51.108;13.622;2023-03-23T03:46:45;2.33;;;1.30;;
68653;SDS011;55636;51.108;13.622;2023-03-23T03:47:48;2.67;;;1.35;;
68653;SDS011;55636;51.108;13.622;2023-03-23T03:48:52;1.15;;;1.08;;
68653;SDS011;55636;51.108;13.622;2023-03-23T03:49:55;2.92;;;1.20;;
68653;SDS011;55636;51.108;13.622;2023-03-23T03:50:59;2.42;;;1.25;;
68653;SDS011;55636;51.108;13.622;2023-03-23T03:52:05;2.60;;;1.60;;
68653;SDS011;55636;51.108;13.622;2023-03-23T03:53:13;1.17;;;1.10;;
68653;SDS011;55636;51.108;13.622;2023-03-23T03:54:17;1.30;;;1.20;;
68653;SDS011;55636;51.108;13.622;2023-03-23T03:55:22;1.30;;;1.20;;
68653;SDS011;55636;51.108;13.622;2023-03-23T03:56:25;2.35;;;1.40;;
68653;SDS011;55636;51.108;13.622;2023-03-23T03:57:41;1.85;;;1.30;;
68653;SDS011;55636;51.108;13.622;2023-03-23T03:58:43;1.38;;;1.27;;
68653;SDS011;55636;51.108;13.622;2023-03-23T04:00:33;2.08;;;1.35;;
68653;SDS011;55636;51.108;13.622;2023-03-23T04:01:37;1.30;;;1.20;;
68653;SDS011;55636;51.108;13.622;2023-03-23T04:02:44;1.40;;;1.20;;
68653;SDS011;55636;51.108;13.622;2023-03-23T04:03:59;1.63;;;1.20;;
68653;SDS011;55636;51.108;13.622;2023-03-23T04:05:08;1.85;;;1.20;;
68653;SDS011;55636;51.108;13.622;2023-03-23T04:06:12;1.30;;;1.10;;
68653;SDS011;55636;51.108;13.622;2023-03-23T04:07:15;1.50;;;1.40;;
68653;SDS011;55636;51.108;13.622;2023-03-23T04:08:21;3.10;;;1.38;;
68653;SDS011;55636;51.108;13.622;2023-03-23T04:09:26;2.05;;;1.20;;
68653;SDS011;55636;51.108;13.622;2023-03-23T04:10:30;1.20;;;1.10;;
68653;SDS011;55636;51.108;13.622;2023-03-23T04:11:34;1.33;;;1.23;;
68653;SDS011;55636;51.108;13.622;2023-03-23T04:12:57;3.97;;;1.58;;
68653;SDS011;55636;51.108;13.622;2023-03-23T04:14:24;1.50;;;1.30;;
68653;SDS011;55636;51.108;13.622;2023-03-23T04:15:29;1.70;;;1.40;;
68653;SDS011;55636;51.108;13.622;2023-03-23T04:16:32;1.40;;;1.30;;
68653;SDS011;55636;51.108;13.622;2023-03-23T04:17:38;3.88;;;1.27;;
68653;SDS011;55636;51.108;13.622;2023-03-23T04:18:43;1.40;;;1.15;;
68653;SDS011;55636;51.108;13.622;2023-03-23T04:19:54;1.35;;;1.20;;
68653;SDS011;55636;51.108;13.622;2023-03-23T04:21:08;1.20;;;1.10;;
68653;SDS011;55636;51.108;13.622;2023-03-23T04:22:11;1.40;;;1.30;;
68653;SDS011;55636;51.108;13.622;2023-03-23T04:23:14;1.50;;;1.30;;
68653;SDS011;55636;51.108;13.622;2023-03-23T04:24:24;4.82;;;1.50;;
68653;SDS011;55636;51.108;13.622;2023-03-23T04:25:52;1.33;;;1.20;;
68653;SDS011;55636;51.108;13.622;2023-03-23T04:27:05;2.17;;;1.23;;
68653;SDS011;55636;51.108;13.622;2023-03-23T04:28:08;1.40;;;1.30;;
68653;SDS011;55636;51.108;13.622;2023-03-23T04:29:21;1.45;;;1.35;;
68653;SDS011;55636;51.108;13.622;2023-03-23T04:30:43;1.30;;;1.20;;
68653;SDS011;55636;51.108;13.622;2023-03-23T04:31:46;1.48;;;1.15;;
68653;SDS011;55636;51.108;13.622;2023-03-23T04:33:04;2.03;;;1.30;;
68653;SDS011;55636;51.108;13.622;2023-03-23T04:34:07;1.52;;;1.20;;
68653;SDS011;55636;51.108;13.622;2023-03-23T04:35:17;1.20;;;1.10;;
68653;SDS011;55636;51.108;13.622;2023-03-23T04:36:39;2.13;;;1.33;;
68653;SDS011;55636;51.108;13.622;2023-03-23T04:38:02;1.55;;;1.40;;
68653;SDS011;55636;51.108;13.622;2023-03-23T04:39:05;1.73;;;1.23;;
68653;SDS011;55636;51.108;13.622;2023-03-23T04:40:14;1.30;;;1.20;;
68653;SDS011;55636;51.108;13.622;2023-03-23T04:41:23;1.30;;;1.20;;
68653;SDS011;55636;51.108;13.622;2023-03-23T04:42:37;1.45;;;1.35;;
68653;SDS011;55636;51.108;13.622;2023-03-23T04:44:04;1.45;;;1.23;;
68653;SDS011;55636;51.108;13.622;2023-03-23T04:45:15;1.40;;;1.30;;
68653;SDS011;55636;51.108;13.622;2023-03-23T04:46:26;2.03;;;1.48;;
68653;SDS011;55636;51.108;13.622;2023-03-23T04:47:36;1.85;;;1.40;;
68653;SDS011;55636;51.108;13.622;2023-03-23T04:48:53;1.70;;;1.40;;
68653;SDS011;55636;51.108;13.622;2023-03-23T04:50:02;1.38;;;1.27;;
68653;SDS011;55636;51.108;13.622;2023-03-23T04:51:11;1.50;;;1.20;;
68653;SDS011;55636;51.108;13.622;2023-03-23T04:52:19;1.33;;;1.23;;
68653;SDS011;55636;51.108;13.622;2023-03-23T04:53:28;1.77;;;1.50;;
68653;SDS011;55636;51.108;13.622;2023-03-23T04:54:32;1.60;;;1.50;;
68653;SDS011;55636;51.108;13.622;2023-03-23T04:55:36;3.40;;;1.55;;
68653;SDS011;55636;51.108;13.622;2023-03-23T04:56:41;1.42;;;1.30;;
68653;SDS011;55636;51.108;13.622;2023-03-23T04:57:48;1.30;;;1.20;;
68653;SDS011;55636;51.108;13.622;2023-03-23T04:59:26;2.20;;;1.45;;
68653;SDS011;55636;51.108;13.622;2023-03-23T05:00:38;1.90;;;1.33;;
68653;SDS011;55636;51.108;13.622;2023-03-23T05:01:42;1.95;;;1.30;;
68653;SDS011;55636;51.108;13.622;2023-03-23T05:03:08;1.33;;;1.23;;
68653;SDS011;55636;51.108;13.622;2023-03-23T05:04:11;1.63;;;1.40;;
68653;SDS011;55636;51.108;13.622;2023-03-23T05:05:38;2.05;;;1.48;;
68653;SDS011;55636;51.108;13.622;2023-03-23T05:06:45;1.67;;;1.50;;
68653;SDS011;55636;51.108;13.622;2023-03-23T05:07:54;1.80;;;1.25;;
68653;SDS011;55636;51.108;13.622;2023-03-23T05:09:02;1.90;;;1.60;;
68653;SDS011;55636;51.108;13.622;2023-03-23T05:10:05;1.77;;;1.48;;
68653;SDS011;55636;51.108;13.622;2023-03-23T05:11:09;2.30;;;1.83;;
68653;SDS011;55636;51.108;13.622;2023-03-23T05:12:14;2.53;;;1.73;;
68653;SDS011;55636;51.108;13.622;2023-03-23T05:13:31;3.00;;;1.60;;
68653;SDS011;55636;51.108;13.622;2023-03-23T05:14:34;3.10;;;1.60;;
68653;SDS011;55636;51.108;13.622;2023-03-23T05:15:44;1.85;;;1.60;;
68653;SDS011;55636;51.108;13.622;2023-03-23T05:16:49;2.20;;;1.80;;
68653;SDS011;55636;51.108;13.622;2023-03-23T05:17:53;2.25;;;1.70;;
68653;SDS011;55636;51.108;13.622;2023-03-23T05:18:56;3.17;;;1.60;;
68653;SDS011;55636;51.108;13.622;2023-03-23T05:20:04;1.63;;;1.50;;
68653;SDS011;55636;51.108;13.622;2023-03-23T05:21:16;3.08;;;1.70;;
68653;SDS011;55636;51.108;13.622;2023-03-23T05:22:23;1.95;;;1.60;;
68653;SDS011;55636;51.108;13.622;2023-03-23T05:23:29;1.75;;;1.60;;
68653;SDS011;55636;51.108;13.622;2023-03-23T05:24:40;3.22;;;1.90;;
68653;SDS011;55636;51.108;13.622;2023-03-23T05:25:45;1.83;;;1.50;;
68653;SDS011;55636;51.108;13.622;2023-03-23T05:26:55;2.33;;;1.88;;
68653;SDS011;55636;51.108;13.622;2023-03-23T05:28:03;1.58;;;1.45;;
68653;SDS011;55636;51.108;13.622;2023-03-23T05:29:21;2.40;;;1.80;;
68653;SDS011;55636;51.108;13.622;2023-03-23T05:30:31;2.47;;;1.58;;
68653;SDS011;55636;51.108;13.622;2023-03-23T05:31:34;1.60;;;1.50;;
68653;SDS011;55636;51.108;13.622;2023-03-23T05:32:36;2.33;;;1.60;;
68653;SDS011;55636;51.108;13.622;2023-03-23T05:34:08;1.50;;;1.40;;
68653;SDS011;55636;51.108;13.622;2023-03-23T05:35:19;1.75;;;1.55;;
68653;SDS011;55636;51.108;13.622;2023-03-23T05:36:24;2.03;;;1.83;;
68653;SDS011;55636;51.108;13.622;2023-03-23T05:37:45;3.95;;;1.85;;
68653;SDS011;55636;51.108;13.622;2023-03-23T05:38:48;2.75;;;1.77;;
68653;SDS011;55636;51.108;13.622;2023-03-23T05:39:53;1.98;;;1.70;;
68653;SDS011;55636;51.108;13.622;2023-03-23T05:41:23;2.58;;;1.70;;
68653;SDS011;55636;51.108;13.622;2023-03-23T05:42:27;1.63;;;1.50;;
68653;SDS011;55636;51.108;13.622;2023-03-23T05:43:38;1.85;;;1.60;;
68653;SDS011;55636;51.108;13.622;2023-03-23T05:44:53;2.15;;;1.70;;
68653;SDS011;55636;51.108;13.622;2023-03-23T05:45:56;2.25;;;1.63;;
68653;SDS011;55636;51.108;13.622;2023-03-23T05:47:01;3.85;;;1.67;;
68653;SDS011;55636;51.108;13.622;2023-03-23T05:48:05;1.73;;;1.63;;
68653;SDS011;55636;51.108;13.622;2023-03-23T05:49:07;1.67;;;1.50;;
68653;SDS011;55636;51.108;13.622;2023-03-23T05:50:13;3.28;;;1.60;;
68653;SDS011;55636;51.108;13.622;2023-03-23T05:51:18;4.22;;;1.50;;
68653;SDS011;55636;51.108;13.622;2023-03-23T05:52:20;1.95;;;1.60;;
68653;SDS011;55636;51.108;13.622;2023-03-23T05:53:23;2.03;;;1.70;;
68653;SDS011;55636;51.108;13.622;2023-03-23T05:54:28;2.05;;;1.55;;
68653;SDS011;55636;51.108;13.622;2023-03-23T05:55:32;2.80;;;1.60;;
68653;SDS011;55636;51.108;13.622;2023-03-23T05:56:43;1.85;;;1.58;;
68653;SDS011;55636;51.108;13.622;2023-03-23T05:57:56;2.80;;;1.80;;
68653;SDS011;55636;51.108;13.622;2023-03-23T05:59:07;2.80;;;1.90;;
68653;SDS011;55636;51.108;13.622;2023-03-23T06:00:11;1.77;;;1.63;;
68653;SDS011;55636;51.108;13.622;2023-03-23T06:01:32;2.20;;;1.80;;
68653;SDS011;55636;51.108;13.622;2023-03-23T06:02:35;2.15;;;1.70;;
68653;SDS011;55636;51.108;13.622;2023-03-23T06:03:37;1.90;;;1.70;;
68653;SDS011;55636;51.108;13.622;2023-03-23T06:04:59;2.17;;;1.60;;
68653;SDS011;55636;51.108;13.622;2023-03-23T06:06:04;2.90;;;1.90;;
68653;SDS011;55636;51.108;13.622;2023-03-23T06:07:19;4.30;;;1.90;;
68653;SDS011;55636;51.108;13.622;2023-03-23T06:08:33;3.05;;;2.13;;
68653;SDS011;55636;51.108;13.622;2023-03-23T06:09:38;2.45;;;1.80;;
68653;SDS011;55636;51.108;13.622;2023-03-23T06:11:03;3.55;;;2.00;;
68653;SDS011;55636;51.108;13.622;2023-03-23T06:12:11;4.18;;;2.00;;
68653;SDS011;55636;51.108;13.622;2023-03-23T06:13:40;2.47;;;1.90;;
68653;SDS011;55636;51.108;13.622;2023-03-23T06:14:45;3.88;;;1.92;;
68653;SDS011;55636;51.108;13.622;2023-03-23T06:15:56;1.95;;;1.30;;
68653;SDS011;55636;51.108;13.622;2023-03-23T06:17:16;2.55;;;1.50;;
68653;SDS011;55636;51.108;13.622;2023-03-23T06:18:20;1.75;;;1.17;;
68653;SDS011;55636;51.108;13.622;2023-03-23T06:20:03;1.52;;;1.20;;
68653;SDS011;55636;51.108;13.622;2023-03-23T06:21:13;1.30;;;1.20;;
68653;SDS011;55636;51.108;13.622;2023-03-23T06:22:27;1.20;;;1.10;;
68653;SDS011;55636;51.108;13.622;2023-03-23T06:23:31;1.38;;;1.00;;
68653;SDS011;55636;51.108;13.622;2023-03-23T06:24:38;1.38;;;1.23;;
68653;SDS011;55636;51.108;13.622;2023-03-23T06:25:46;2.15;;;1.42;;
68653;SDS011;55636;51.108;13.622;2023-03-23T06:26:50;1.65;;;1.20;;
68653;SDS011;55636;51.108;13.622;2023-03-23T06:27:56;1.77;;;1.17;;
68653;SDS011;55636;51.108;13.622;2023-03-23T06:29:03;2.35;;;1.20;;
68653;SDS011;55636;51.108;13.622;2023-03-23T06:30:17;1.20;;;1.10;;
68653;SDS011;55636;51.108;13.622;2023-03-23T06:31:21;2.10;;;1.45;;
68653;SDS011;55636;51.108;13.622;2023-03-23T06:32:25;1.80;;;1.40;;
68653;SDS011;55636;51.108;13.622;2023-03-23T06:33:30;1.50;;;1.23;;
68653;SDS011;55636;51.108;13.622;2023-03-23T06:34:51;1.95;;;1.42;;
68653;SDS011;55636;51.108;13.622;2023-03-23T06:36:15;1.35;;;1.25;;
68653;SDS011;55636;51.108;13.622;2023-03-23T06:37:44;1.42;;;1.33;;
68653;SDS011;55636;51.108;13.622;2023-03-23T06:38:52;1.85;;;1.30;;
68653;SDS011;55636;51.108;13.622;2023-03-23T06:40:06;1.83;;;1.33;;
68653;SDS011;55636;51.108;13.622;2023-03-23T06:41:13;1.50;;;1.30;;
68653;SDS011;55636;51.108;13.622;2023-03-23T06:42:16;1.83;;;1.40;;
68653;SDS011;55636;51.108;13.622;2023-03-23T06:43:23;1.15;;;1.08;;
68653;SDS011;55636;51.108;13.622;2023-03-23T06:44:26;1.65;;;1.40;;
68653;SDS011;55636;51.108;13.622;2023-03-23T06:45:29;1.27;;;1.17;;
68653;SDS011;55636;51.108;13.622;2023-03-23T06:47:04;1.60;;;1.35;;
68653;SDS011;55636;51.108;13.622;2023-03-23T06:48:10;1.55;;;1.40;;
68653;SDS011;55636;51.108;13.622;2023-03-23T06:49:13;1.38;;;1.13;;
68653;SDS011;55636;51.108;13.622;2023-03-23T06:50:23;1.70;;;1.27;;
68653;SDS011;55636;51.108;13.622;2023-03-23T06:51:27;1.38;;;1.17;;
68653;SDS011;55636;51.108;13.622;2023-03-23T06:52:30;2.55;;;1.30;;
68653;SDS011;55636;51.108;13.622;2023-03-23T06:53:32;2.20;;;1.40;;
68653;SDS011;55636;51.108;13.622;2023-03-23T06:54:38;1.50;;;1.20;;
68653;SDS011;55636;51.108;13.622;2023-03-23T06:55:45;2.00;;;1.42;;
68653;SDS011;55636;51.108;13.622;2023-03-23T06:56:48;2.33;;;1.25;;
68653;SDS011;55636;51.108;13.622;2023-03-23T06:57:52;1.38;;;1.27;;
68653;SDS011;55636;51.108;13.622;2023-03-23T06:58:57;1.40;;;1.20;;
68653;SDS011;55636;51.108;13.622;2023-03-23T07:00:00;2.72;;;1.30;;
68653;SDS011;55636;51.108;13.622;2023-03-23T07:01:08;1.80;;;1.50;;